»·PEaware :: WAT380 KPSP-KDEN

WAT380 :: KPSP-KDEN

FLIGHT INFORMATION

Flight Status: Arrived
Operator:
Walker Air Transport
More flights by this operator :: More flights under this callsign
Pilot: Spencer M. (27733)
Aircraft: DASSAULT AVIATION FALCON 50
(FA50)
More flights by this aircraft type
Origin: KPSP Palm Springs Intl
United States
Destination: KDEN Denver Intl
United States
More flights between these airports :: More routes between these airports
Route: CATH1 PSP V370 TNP EED J236 TBC SHNPS TBARR2
File this flight plan on PilotEdge
Remarks:
Altitude:
(Current/Filed)
39,000ft
Speed:
(Current/Filed)
470kts
Departed: 09-Jan-21 09:40 AM
Arrived: 09-Jan-21 11:29 AM
Distance/Time
Traveled:
672nm/1:49
Distance/Time
To Go:
Arrived

Flight Plot

Page will automatically refresh every two minutes.

Flight plan parsing failed; only flown route is shown


Map Options




Map Legend


Flown Route
Filed Route
Departure Airport
Arrival Airport
Navaid (VOR, NDB)
Fix

Horizontal Profiles

Position Reports

Time Latitude Longitude Heading Altitude Ground
Speed
09-Jan-21 09:17 33.825352 -116.509543 90 484ft 0kts
09-Jan-21 09:18 33.825352 -116.509543 90 484ft 0kts
09-Jan-21 09:19 33.825352 -116.509543 90 484ft 0kts
09-Jan-21 09:20 33.825352 -116.509543 90 484ft 0kts
09-Jan-21 09:21 33.825352 -116.509543 90 484ft 0kts
09-Jan-21 09:22 33.825352 -116.509543 90 484ft 0kts
09-Jan-21 09:23 33.825352 -116.509543 90 484ft 0kts
09-Jan-21 09:24 33.825352 -116.509543 90 484ft 0kts
09-Jan-21 09:25 33.825352 -116.509543 90 484ft 0kts
09-Jan-21 09:26 33.825352 -116.509543 90 484ft 0kts
09-Jan-21 09:27 33.825352 -116.509543 90 484ft 0kts
09-Jan-21 09:28 33.825352 -116.509543 90 484ft 0kts
09-Jan-21 09:29 33.825352 -116.509543 90 484ft 0kts
09-Jan-21 09:30 33.825352 -116.509543 90 484ft 0kts
09-Jan-21 09:31 33.825352 -116.509543 90 484ft 0kts
09-Jan-21 09:32 33.825352 -116.509543 90 484ft 0kts
09-Jan-21 09:33 33.825352 -116.509543 90 484ft 0kts
09-Jan-21 09:34 33.825352 -116.509543 90 484ft 0kts
09-Jan-21 09:35 33.824947 -116.505484 143 484ft 12kts
09-Jan-21 09:36 33.822002 -116.502861 143 484ft 18kts
09-Jan-21 09:37 33.818511 -116.499062 90 484ft 7kts
09-Jan-21 09:38 33.819288 -116.498426 318 484ft 0kts
09-Jan-21 09:39 33.821616 -116.500481 323 484ft 74kts
09-Jan-21 09:40 33.859763 -116.529859 328 2504ft 203kts
09-Jan-21 09:41 33.909904 -116.565424 359 4630ft 198kts
09-Jan-21 09:42 33.926376 -116.522571 125 7024ft 203kts
09-Jan-21 09:43 33.882209 -116.457846 110 6995ft 256kts
09-Jan-21 09:44 33.867997 -116.384239 53 7590ft 203kts
09-Jan-21 09:45 33.899204 -116.334346 47 9983ft 183kts
09-Jan-21 09:46 33.937285 -116.274198 43 12654ft 271kts
09-Jan-21 09:47 33.990828 -116.194593 44 15456ft 339kts
09-Jan-21 09:48 34.053479 -116.099470 44 18283ft 376kts
09-Jan-21 09:49 34.119120 -115.999077 43 21307ft 388kts
09-Jan-21 09:50 34.177796 -115.885311 53 23377ft 424kts
09-Jan-21 09:51 34.233920 -115.756550 52 25308ft 437kts
09-Jan-21 09:52 34.290977 -115.628310 51 27675ft 432kts
09-Jan-21 09:53 34.347563 -115.501586 50 29885ft 426kts
09-Jan-21 09:54 34.403057 -115.376901 50 32010ft 417kts
09-Jan-21 09:55 34.457430 -115.254344 51 33912ft 410kts
09-Jan-21 09:56 34.511147 -115.133036 50 35315ft 412kts
09-Jan-21 09:57 34.565535 -115.009633 50 36550ft 417kts
09-Jan-21 09:58 34.620458 -114.884509 50 37635ft 423kts
09-Jan-21 09:59 34.675889 -114.757725 50 38644ft 428kts
09-Jan-21 10:00 34.732158 -114.628716 50 39200ft 443kts
09-Jan-21 10:01 34.791283 -114.492640 51 39216ft 466kts
09-Jan-21 10:02 34.851974 -114.351823 51 39231ft 473kts
09-Jan-21 10:03 34.913199 -114.209341 51 39227ft 475kts
09-Jan-21 10:04 34.974310 -114.066685 51 39223ft 476kts
09-Jan-21 10:05 35.035563 -113.923185 51 39223ft 482kts
09-Jan-21 10:06 35.097681 -113.777050 51 39223ft 490kts
09-Jan-21 10:07 35.160752 -113.627870 51 39241ft 497kts
09-Jan-21 10:08 35.224054 -113.477449 51 39241ft 500kts
09-Jan-21 10:09 35.287377 -113.326278 52 39228ft 500kts
09-Jan-21 10:10 35.350372 -113.175229 52 39228ft 497kts
09-Jan-21 10:11 35.412887 -113.024737 52 39228ft 496kts
09-Jan-21 10:12 35.475089 -112.874301 52 39185ft 495kts
09-Jan-21 10:13 35.536979 -112.723889 53 39157ft 491kts
09-Jan-21 10:14 35.598076 -112.574770 53 39158ft 489kts
09-Jan-21 10:15 35.658714 -112.426110 53 39159ft 486kts
09-Jan-21 10:16 35.719145 -112.277273 54 39149ft 484kts
09-Jan-21 10:17 35.778847 -112.129561 54 39149ft 483kts
09-Jan-21 10:18 35.838268 -111.981878 54 39141ft 482kts
09-Jan-21 10:19 35.897464 -111.834087 54 39135ft 481kts
09-Jan-21 10:20 35.956540 -111.685905 54 39148ft 481kts
09-Jan-21 10:21 36.015416 -111.537547 55 39161ft 482kts
09-Jan-21 10:22 36.074140 -111.388870 55 39161ft 483kts
09-Jan-21 10:23 36.135862 -111.241944 51 39167ft 478kts
09-Jan-21 10:24 36.205739 -111.102468 51 39167ft 479kts
09-Jan-21 10:25 36.275958 -110.962462 51 39152ft 481kts
09-Jan-21 10:26 36.346710 -110.821215 51 39139ft 482kts
09-Jan-21 10:27 36.417293 -110.679755 52 39140ft 484kts
09-Jan-21 10:28 36.488032 -110.537386 52 39139ft 485kts
09-Jan-21 10:29 36.558561 -110.394837 52 39148ft 486kts
09-Jan-21 10:30 36.629225 -110.251408 53 39150ft 487kts
09-Jan-21 10:31 36.699827 -110.107480 53 39151ft 487kts
09-Jan-21 10:32 36.770083 -109.963649 54 39140ft 487kts
09-Jan-21 10:33 36.840477 -109.818909 54 39135ft 488kts
09-Jan-21 10:35 36.910551 -109.674184 54 39136ft 488kts
09-Jan-21 10:36 36.980591 -109.528888 54 39136ft 488kts
09-Jan-21 10:37 37.050444 -109.383370 54 39137ft 487kts
09-Jan-21 10:38 37.119833 -109.238196 55 39139ft 487kts
09-Jan-21 10:39 37.189225 -109.092365 55 39122ft 488kts
09-Jan-21 10:40 37.258472 -108.946184 55 39090ft 489kts
09-Jan-21 10:41 37.327691 -108.799407 56 39093ft 489kts
09-Jan-21 10:42 37.396642 -108.652542 56 39092ft 489kts
09-Jan-21 10:43 37.465591 -108.505022 56 39093ft 489kts
09-Jan-21 10:44 37.534311 -108.357323 56 39093ft 490kts
09-Jan-21 10:45 37.602783 -108.209491 57 39089ft 489kts
09-Jan-21 10:46 37.671160 -108.061184 57 39060ft 490kts
09-Jan-21 10:47 37.739522 -107.912226 58 39045ft 490kts
09-Jan-21 10:48 37.807372 -107.763701 58 39054ft 490kts
09-Jan-21 10:48 37.864125 -107.638941 58 39067ft 490kts
09-Jan-21 10:49 37.931843 -107.489445 58 39083ft 490kts
09-Jan-21 10:50 37.999339 -107.339742 58 39082ft 492kts
09-Jan-21 10:52 38.078010 -107.164379 59 39080ft 490kts
09-Jan-21 10:52 38.134663 -107.039842 56 39081ft 488kts
09-Jan-21 10:53 38.216883 -106.904686 48 39090ft 474kts
09-Jan-21 10:54 38.299215 -106.779078 49 37532ft 457kts
09-Jan-21 10:55 38.379151 -106.657010 49 35037ft 443kts
09-Jan-21 10:56 38.456926 -106.537809 50 32666ft 435kts
09-Jan-21 10:57 38.533359 -106.420223 51 30372ft 428kts
09-Jan-21 10:58 38.608583 -106.304067 52 28140ft 421kts
09-Jan-21 10:59 38.680091 -106.193771 51 26894ft 382kts
09-Jan-21 11:00 38.745385 -106.094143 51 25705ft 355kts
09-Jan-21 11:01 38.807947 -105.998160 51 24241ft 348kts
09-Jan-21 11:02 38.869241 -105.903841 50 22748ft 341kts
09-Jan-21 11:03 38.928775 -105.811731 50 21263ft 332kts
09-Jan-21 11:04 38.986516 -105.722009 50 20171ft 307kts
09-Jan-21 11:05 39.036879 -105.643598 50 20156ft 276kts
09-Jan-21 11:06 39.087716 -105.564186 50 20157ft 307kts
09-Jan-21 11:07 39.144692 -105.474946 50 20142ft 325kts
09-Jan-21 11:08 39.197975 -105.390525 50 18390ft 283kts
09-Jan-21 11:09 39.245860 -105.314337 51 16898ft 264kts
09-Jan-21 11:10 39.283347 -105.241371 70 16296ft 233kts
09-Jan-21 11:11 39.295596 -105.161829 82 14837ft 210kts
09-Jan-21 11:12 39.304635 -105.084602 83 13879ft 206kts
09-Jan-21 11:13 39.312948 -105.013661 83 13919ft 200kts
09-Jan-21 11:14 39.324678 -104.945248 77 13946ft 209kts
09-Jan-21 11:15 39.338794 -104.871165 76 13729ft 213kts
09-Jan-21 11:16 39.357903 -104.796625 73 12964ft 209kts
09-Jan-21 11:17 39.378369 -104.726790 70 11982ft 194kts
09-Jan-21 11:18 39.405247 -104.671506 28 11973ft 179kts
09-Jan-21 11:19 39.454733 -104.664895 0 11977ft 185kts
09-Jan-21 11:20 39.509655 -104.664332 0 11667ft 195kts
09-Jan-21 11:21 39.568558 -104.663638 0 10451ft 193kts
09-Jan-21 11:22 39.626191 -104.662950 1 9353ft 185kts
09-Jan-21 11:23 39.679371 -104.662324 0 8364ft 194kts
09-Jan-21 11:24 39.729206 -104.661730 0 7203ft 156kts
09-Jan-21 11:25 39.769263 -104.661252 1 6412ft 138kts
09-Jan-21 11:26 39.807028 -104.660591 359 5628ft 132kts
09-Jan-21 11:27 39.843119 -104.660389 0 5441ft 118kts
09-Jan-21 11:28 39.852870 -104.661603 296 5441ft 0kts
09-Jan-21 11:29 39.850848 -104.662399 178 5441ft 19kts
09-Jan-21 11:30 39.843578 -104.662515 180 5441ft 30kts
09-Jan-21 11:31 39.839768 -104.664801 282 5441ft 6kts

Navigation Log

Ident Type
Flight plan parsing failed, navigation log unavailable